Time;durP1;ratioP1;P1;durP2;ratioP2;P2;SDS_P1;SDS_P2;PMS_P1;PMS_P2;Temp;Humidity;BMP_temperature;BMP_pressure;BME280_temperature;BME280_humidity;BME280_pressure;Samples;Min_cycle;Max_cycle;Signal;HPM_P1;HPM_P2
2022/10/08 00:07:02;;;;;;;19.60;5.72;;;18.60;57.10;;;;;;20994868;28;20057;-59
2022/10/08 00:17:03;;;;;;;12.70;4.80;;;18.40;57.20;;;;;;20994414;28;20057;-59
2022/10/08 00:27:05;;;;;;;17.50;4.57;;;18.40;57.30;;;;;;20976722;28;20048;-59
2022/10/08 00:37:06;;;;;;;14.45;6.47;;;18.40;57.50;;;;;;20993934;28;20131;-58
2022/10/08 00:47:18;;;;;;;10.65;4.32;;;18.30;57.70;;;;;;20993979;28;20424;-58
2022/10/08 00:57:20;;;;;;;11.43;4.55;;;18.30;57.80;;;;;;20993262;28;20060;-59
2022/10/08 01:07:35;;;;;;;12.15;4.82;;;18.20;58.10;;;;;;20999499;28;20090;-58
2022/10/08 01:17:41;;;;;;;10.93;5.40;;;18.20;58.30;;;;;;20989254;28;20053;-59
2022/10/08 01:27:49;;;;;;;14.73;5.30;;;18.00;58.70;;;;;;20988877;28;20048;-58
2022/10/08 01:37:54;;;;;;;12.00;4.28;;;18.00;58.70;;;;;;21006469;28;20485;-58
2022/10/08 01:47:59;;;;;;;13.98;4.05;;;17.80;59.20;;;;;;21005541;28;20109;-59
2022/10/08 01:58:27;;;;;;;12.82;4.28;;;17.80;59.10;;;;;;21004264;28;20090;-59
2022/10/08 02:08:35;;;;;;;13.77;4.53;;;17.70;59.40;;;;;;21004247;28;20055;-57
2022/10/08 02:18:57;;;;;;;8.65;4.10;;;17.60;60.10;;;;;;20985224;28;20492;-58
2022/10/08 02:29:09;;;;;;;16.08;4.85;;;17.60;60.30;;;;;;21002125;28;20056;-59
2022/10/08 02:39:26;;;;;;;8.88;4.00;;;17.50;60.50;;;;;;21000891;28;20084;-58
2022/10/08 02:49:52;;;;;;;9.70;4.45;;;17.60;60.50;;;;;;20999660;28;20056;-58
2022/10/08 02:59:58;;;;;;;10.27;3.77;;;17.60;60.30;;;;;;20998994;28;20053;-61
2022/10/08 03:10:04;;;;;;;;;;;17.60;60.40;;;;;;20998621;28;20060;-58
2022/10/08 03:20:07;;;;;;;9.98;4.30;;;17.60;60.20;;;;;;20998007;28;20277;-58
2022/10/08 03:30:11;;;;;;;10.95;5.00;;;17.50;60.90;;;;;;20997030;28;20084;-58
2022/10/08 03:40:12;;;;;;;9.50;4.43;;;17.40;61.20;;;;;;20977646;28;20055;-58
2022/10/08 03:50:14;;;;;;;14.85;5.20;;;17.40;61.20;;;;;;20995682;28;20455;-58
2022/10/08 04:00:16;;;;;;;10.55;4.47;;;17.40;61.30;;;;;;20995727;28;20489;-59
2022/10/08 04:10:17;;;;;;;8.48;4.43;;;17.30;61.50;;;;;;20977503;28;20475;-59
2022/10/08 04:20:19;;;;;;;10.52;4.07;;;17.20;61.80;;;;;;20994951;28;20508;-59
2022/10/08 04:30:20;;;;;;;10.32;4.22;;;17.20;61.90;;;;;;20993447;28;20147;-58
2022/10/08 04:40:21;;;;;;;8.88;4.43;;;17.20;61.70;;;;;;20998428;28;20045;-58
2022/10/08 04:50:23;;;;;;;6.85;3.95;;;17.10;61.60;;;;;;21009695;28;20056;-57
2022/10/08 05:00:24;;;;;;;16.27;4.47;;;16.80;62.00;;;;;;20990968;28;20045;-58
2022/10/08 05:10:26;;;;;;;10.32;4.07;;;16.70;62.70;;;;;;21008529;28;20048;-59
2022/10/08 05:20:27;;;;;;;13.40;4.20;;;16.60;63.10;;;;;;20990100;28;20134;-60
2022/10/08 05:30:29;;;;;;;10.35;3.30;;;16.50;63.10;;;;;;21007399;28;20401;-58
2022/10/08 05:40:30;;;;;;;6.55;3.33;;;16.40;63.40;;;;;;21007488;28;20504;-58
2022/10/08 05:50:35;;;;;;;11.25;4.20;;;16.30;63.70;;;;;;21003904;28;20060;-58
2022/10/08 06:00:36;;;;;;;9.10;4.15;;;16.30;63.70;;;;;;21004453;28;20064;-60
2022/10/08 06:10:46;;;;;;;10.93;3.60;;;16.20;63.50;;;;;;21004343;28;20134;-58
2022/10/08 06:20:48;;;;;;;8.55;4.15;;;16.10;64.00;;;;;;21003223;28;20048;-60
2022/10/08 06:30:49;;;;;;;10.48;3.35;;;16.00;64.50;;;;;;21003115;28;20135;-59
2022/10/08 06:40:50;;;;;;;11.93;4.00;;;16.00;64.40;;;;;;21001063;28;20049;-60
2022/10/08 06:50:59;;;;;;;7.30;3.72;;;15.90;64.50;;;;;;20966233;28;20056;-58
2022/10/08 07:01:06;;;;;;;8.05;4.43;;;16.00;64.60;;;;;;20999933;28;20503;-60
2022/10/08 07:11:14;;;;;;;10.35;4.32;;;16.10;64.40;;;;;;20999701;28;20424;-58
2022/10/08 07:21:17;;;;;;;16.17;4.70;;;16.20;64.00;;;;;;20998168;28;20086;-58
2022/10/08 07:31:21;;;;;;;9.93;4.10;;;16.40;63.60;;;;;;20997392;28;20070;-61
2022/10/08 07:41:23;;;;;;;18.25;5.05;;;16.50;63.20;;;;;;20996366;28;20447;-59
2022/10/08 07:51:25;;;;;;;23.92;5.05;;;16.70;62.90;;;;;;20996075;28;20048;-58
2022/10/08 08:01:28;;;;;;;13.70;4.97;;;16.80;62.50;;;;;;20996113;28;20093;-60
2022/10/08 08:11:30;;;;;;;27.77;16.95;;;17.10;62.10;;;;;;20977380;28;20048;-59
2022/10/08 08:21:35;;;;;;;10.07;5.35;;;17.30;61.60;;;;;;20994715;28;20067;-58
2022/10/08 08:31:39;;;;;;;10.82;4.80;;;17.60;61.20;;;;;;20994015;28;20049;-58
2022/10/08 08:41:51;;;;;;;11.05;4.55;;;18.00;60.40;;;;;;20994130;28;20201;-57
2022/10/08 08:51:53;;;;;;;9.80;5.13;;;18.40;59.80;;;;;;20994004;28;20052;-59
2022/10/08 09:02:04;;;;;;;10.30;3.00;;;18.70;59.00;;;;;;20975624;28;20044;-59
2022/10/08 09:12:29;;;;;;;6.93;3.65;;;19.10;59.00;;;;;;20975405;28;20063;-59
2022/10/08 09:22:38;;;;;;;10.98;3.75;;;19.30;58.60;;;;;;20993336;28;20044;-59
2022/10/08 09:32:40;;;;;;;10.02;2.78;;;19.70;57.80;;;;;;21005647;28;20568;-58
2022/10/08 09:42:42;;;;;;;8.93;3.70;;;19.90;57.60;;;;;;21007082;28;20064;-59
2022/10/08 09:52:47;;;;;;;7.15;2.42;;;20.20;57.80;;;;;;21005582;28;20049;-59
2022/10/08 10:02:53;;;;;;;7.05;3.25;;;20.50;54.70;;;;;;21004824;28;20044;-58
2022/10/08 10:13:26;;;;;;;11.07;3.10;;;21.40;52.30;;;;;;21004796;28;20412;-58
2022/10/08 10:23:36;;;;;;;9.57;2.10;;;21.70;52.50;;;;;;20996260;28;20447;-59
2022/10/08 10:33:50;;;;;;;11.45;3.38;;;21.90;52.30;;;;;;21001932;28;20463;-61
2022/10/08 10:43:59;;;;;;;5.07;2.42;;;22.00;51.80;;;;;;20992412;28;20080;-58
2022/10/08 10:54:20;;;;;;;8.90;2.33;;;22.10;51.30;;;;;;21000706;28;20503;-58
2022/10/08 11:04:37;;;;;;;4.95;2.20;;;22.40;50.70;;;;;;20982027;28;20053;-59
2022/10/08 11:14:47;;;;;;;6.40;1.90;;;22.50;50.30;;;;;;20998398;28;20092;-60
2022/10/08 11:25:10;;;;;;;7.32;3.67;;;22.70;49.90;;;;;;21076872;28;20519;-59
2022/10/08 11:35:16;;;;;;;6.78;2.42;;;22.80;49.50;;;;;;21079987;28;20055;-58
2022/10/08 11:45:22;;;;;;;7.70;2.53;;;23.00;48.90;;;;;;21080119;28;20454;-58
2022/10/08 11:55:29;;;;;;;7.78;2.22;;;23.10;48.20;;;;;;21079419;28;20496;-59
2022/10/08 12:05:42;;;;;;;9.13;2.08;;;23.20;47.50;;;;;;21080193;28;20488;-59
2022/10/08 12:15:44;;;;;;;12.17;2.93;;;23.30;46.50;;;;;;21078473;28;20044;-58
2022/10/08 12:25:47;;;;;;;9.40;2.03;;;23.50;44.40;;;;;;21078814;28;20048;-59
2022/10/08 12:35:55;;;;;;;10.43;2.67;;;23.70;43.50;;;;;;21078616;28;20044;-60
2022/10/08 12:46:45;;;;;;;11.82;2.30;;;23.70;43.60;;;;;;21076995;28;20125;-59
2022/10/08 12:56:48;;;;;;;10.45;3.08;;;24.10;42.50;;;;;;20576836;28;20067;-58
2022/10/08 13:06:52;;;;;;;16.20;3.28;;;24.10;41.90;;;;;;20589204;28;20534;-58
2022/10/08 13:16:55;;;;;;;19.30;4.55;;;24.30;41.00;;;;;;20591412;28;20055;-58
2022/10/08 13:26:58;;;;;;;14.23;3.55;;;24.40;38.60;;;;;;20738380;28;20059;-58
2022/10/08 13:37:04;;;;;;;22.23;5.60;;;24.60;38.50;;;;;;21090366;28;20109;-58
2022/10/08 13:47:12;;;;;;;18.55;4.43;;;24.70;36.60;;;;;;21089743;28;20792;-59
2022/10/08 13:57:14;;;;;;;17.73;4.03;;;24.80;37.30;;;;;;21088719;28;20055;-60
2022/10/08 14:07:43;;;;;;;17.80;3.93;;;24.90;36.20;;;;;;21087582;28;20040;-59
2022/10/08 14:17:44;;;;;;;22.08;4.25;;;24.90;36.50;;;;;;21081488;28;20048;-57
2022/10/08 14:27:46;;;;;;;17.60;4.27;;;25.10;35.90;;;;;;21086800;28;20083;-60
2022/10/08 14:37:48;;;;;;;25.43;4.87;;;25.10;33.90;;;;;;21085504;28;20055;-59
2022/10/08 14:47:49;;;;;;;18.70;4.43;;;25.20;34.80;;;;;;21085673;28;20130;-59
2022/10/08 14:57:51;;;;;;;21.87;4.50;;;25.20;34.40;;;;;;21084540;28;20056;-60
2022/10/08 15:07:53;;;;;;;19.63;3.63;;;25.30;33.40;;;;;;21082938;28;20048;-59
2022/10/08 15:17:55;;;;;;;19.27;4.30;;;25.20;33.90;;;;;;21082005;28;20052;-59
2022/10/08 15:27:57;;;;;;;14.25;3.92;;;25.30;34.10;;;;;;21064312;28;20097;-58
2022/10/08 15:37:59;;;;;;;18.57;3.77;;;25.20;34.20;;;;;;21081692;28;20058;-59
2022/10/08 15:48:00;;;;;;;20.05;3.70;;;25.10;34.10;;;;;;21081052;28;20079;-59
2022/10/08 15:58:02;;;;;;;15.00;3.23;;;25.00;34.70;;;;;;21081361;28;20503;-59
2022/10/08 16:08:07;;;;;;;23.57;5.03;;;24.90;34.80;;;;;;21078809;28;20089;-59
2022/10/08 16:18:09;;;;;;;16.35;4.30;;;24.80;35.00;;;;;;21079569;28;20071;-60
2022/10/08 16:28:10;;;;;;;34.90;5.87;;;24.70;34.70;;;;;;21079069;28;20055;-57
2022/10/08 16:38:12;;;;;;;20.90;5.20;;;24.80;34.00;;;;;;21085310;28;20489;-60
2022/10/08 16:48:14;;;;;;;20.53;5.63;;;24.70;35.20;;;;;;21094248;28;20067;-57
2022/10/08 16:58:16;;;;;;;18.80;4.13;;;24.60;35.10;;;;;;21093795;28;20082;-59
2022/10/08 17:08:17;;;;;;;20.33;4.47;;;24.40;35.20;;;;;;21075656;28;20143;-58
2022/10/08 17:18:19;;;;;;;17.23;4.47;;;24.30;34.90;;;;;;21092410;28;20048;-59
2022/10/08 17:28:21;;;;;;;20.13;5.07;;;24.20;34.50;;;;;;21091034;28;20449;-58
2022/10/08 17:38:22;;;;;;;21.07;5.97;;;24.10;34.90;;;;;;21089713;28;20048;-58
2022/10/08 17:48:24;;;;;;;18.33;4.90;;;24.00;36.20;;;;;;21089534;28;20090;-58
2022/10/08 17:58:26;;;;;;;21.87;6.47;;;23.70;37.10;;;;;;21089889;28;20056;-59
2022/10/08 18:08:28;;;;;;;29.13;5.53;;;23.50;37.90;;;;;;21087796;28;20048;-59
2022/10/08 18:18:30;;;;;;;19.75;5.53;;;23.30;38.10;;;;;;21087570;28;20055;-57
2022/10/08 18:28:32;;;;;;;26.92;7.43;;;23.10;38.70;;;;;;21086668;28;20428;-59
2022/10/08 18:38:33;;;;;;;23.15;8.00;;;22.90;39.00;;;;;;21087393;28;20075;-60
2022/10/08 18:48:36;;;;;;;23.75;8.43;;;22.90;39.50;;;;;;21085610;28;20066;-59
2022/10/08 18:58:37;;;;;;;22.40;5.93;;;22.70;39.60;;;;;;21083804;28;20390;-59
2022/10/08 19:08:39;;;;;;;24.67;5.85;;;22.60;39.90;;;;;;21083023;28;20121;-59
2022/10/08 19:18:42;;;;;;;23.67;6.65;;;22.40;40.30;;;;;;21083187;28;20067;-59
2022/10/08 19:28:49;;;;;;;25.67;6.65;;;22.20;40.90;;;;;;21017777;28;20565;-59
2022/10/08 19:38:52;;;;;;;27.50;8.38;;;22.00;41.90;;;;;;20996876;28;20052;-58
2022/10/08 19:48:57;;;;;;;20.95;6.05;;;21.70;42.60;;;;;;20978531;28;20081;-59
2022/10/08 19:58:59;;;;;;;24.75;6.13;;;21.60;42.80;;;;;;20996610;28;20064;-58
2022/10/08 20:09:02;;;;;;;27.70;7.60;;;21.50;42.60;;;;;;20994421;28;20059;-58
2022/10/08 20:19:12;;;;;;;;;;;21.40;42.80;;;;;;20995797;28;20497;-59
2022/10/08 20:29:19;;;;;;;25.45;7.72;;;21.40;42.60;;;;;;20994413;28;20364;-58
2022/10/08 20:39:21;;;;;;;18.70;5.55;;;21.50;42.60;;;;;;20993486;28;20048;-58
2022/10/08 20:49:23;;;;;;;28.02;6.65;;;21.50;40.80;;;;;;20993609;28;20394;-60
2022/10/08 20:59:25;;;;;;;7.88;3.25;;;21.60;40.20;;;;;;20993545;28;20501;-59
2022/10/08 21:09:27;;;;;;;11.38;3.65;;;21.60;44.60;;;;;;20993045;28;20048;-60
2022/10/08 21:19:28;;;;;;;10.70;2.30;;;21.50;48.20;;;;;;20992810;28;20051;-59
2022/10/08 21:29:30;;;;;;;7.43;2.60;;;21.30;50.20;;;;;;21006743;28;20055;-59
2022/10/08 21:39:32;;;;;;;5.82;2.10;;;21.20;51.00;;;;;;21007116;28;20513;-59
2022/10/08 21:49:34;;;;;;;12.32;2.10;;;21.20;51.50;;;;;;21005602;28;20410;-60
2022/10/08 21:59:35;;;;;;;6.18;2.80;;;21.00;51.80;;;;;;21005090;28;20049;-58
2022/10/08 22:09:37;;;;;;;7.78;2.65;;;20.90;52.10;;;;;;21004286;28;20048;-59
2022/10/08 22:19:39;;;;;;;5.47;2.17;;;20.90;52.10;;;;;;21004938;28;20136;-59
2022/10/08 22:29:40;;;;;;;5.07;2.28;;;20.70;52.50;;;;;;21003178;28;20102;-58
2022/10/08 22:39:42;;;;;;;5.63;1.80;;;20.60;53.00;;;;;;21000956;28;20055;-58
2022/10/08 22:49:44;;;;;;;7.20;2.67;;;20.50;53.20;;;;;;21001099;28;20060;-58
2022/10/08 22:59:45;;;;;;;4.20;2.10;;;20.40;53.40;;;;;;21001592;28;20052;-59
2022/10/08 23:09:47;;;;;;;8.52;3.03;;;20.30;53.50;;;;;;20999808;28;20052;-58
2022/10/08 23:19:48;;;;;;;8.52;2.00;;;20.20;53.90;;;;;;20999856;28;20078;-58
2022/10/08 23:29:50;;;;;;;6.88;2.20;;;20.10;54.50;;;;;;20998237;28;20485;-59
2022/10/08 23:39:52;;;;;;;5.88;2.22;;;20.10;54.70;;;;;;20998244;28;20457;-59
2022/10/08 23:49:54;;;;;;;9.80;3.00;;;20.00;55.20;;;;;;20996063;28;20152;-58
2022/10/08 23:59:55;;;;;;;10.27;2.40;;;19.90;55.70;;;;;;20996194;28;20044;-60
